createdAt,value
2022-12-23T00:01:37.921Z,99158.56
2022-12-23T00:04:05.340Z,99161.22
2022-12-23T00:06:32.403Z,99155.03
2022-12-23T00:09:00.523Z,99148.03
2022-12-23T00:11:28.861Z,99151.53
2022-12-23T00:14:20.476Z,99153.31
2022-12-23T00:16:49.320Z,99149.78
2022-12-23T00:19:16.436Z,99160.31
2022-12-23T00:21:43.381Z,99148.91
2022-12-23T00:24:12.116Z,99157.69
2022-12-23T00:26:39.220Z,99158.56
2022-12-23T00:29:06.229Z,99172.63
2022-12-23T00:31:33.275Z,99167.34
2022-12-23T00:34:00.195Z,99172.63
2022-12-23T00:36:29.845Z,99178.75
2022-12-23T00:39:17.567Z,99177.03
2022-12-23T00:42:03.916Z,99181.41
2022-12-23T00:44:31.197Z,99169.97
2022-12-23T00:46:58.365Z,99180.53
2022-12-23T00:49:44.191Z,99185.78
2022-12-23T00:52:15.758Z,99184.91
2022-12-23T00:54:43.320Z,99194.53
2022-12-23T00:57:10.479Z,99193.63
2022-12-23T00:59:37.701Z,99206.81
2022-12-23T01:02:23.511Z,99211.22
2022-12-23T01:05:12.046Z,99215.63
2022-12-23T01:07:39.044Z,99227.94
2022-12-23T01:10:06.369Z,99227.94
2022-12-23T01:12:33.312Z,99226.16
2022-12-23T01:15:00.288Z,99231.44
2022-12-23T01:17:27.336Z,99234.09
2022-12-23T01:19:54.265Z,99241.97
2022-12-23T01:22:21.202Z,99245.50
2022-12-23T01:24:48.186Z,99244.63
2022-12-23T01:27:15.122Z,99253.38
2022-12-23T01:29:42.607Z,99259.56
2022-12-23T01:32:09.630Z,99269.22
2022-12-23T01:34:37.682Z,99276.25
2022-12-23T01:37:05.395Z,99276.25
2022-12-23T01:39:32.534Z,99282.41
2022-12-23T01:42:41.167Z,99287.69
2022-12-23T01:45:30.870Z,99296.47
2022-12-23T01:48:11.366Z,99303.47
2022-12-23T01:50:47.718Z,99302.59
2022-12-23T01:53:34.204Z,99321.03
2022-12-23T01:56:09.591Z,99326.25
2022-12-23T01:58:45.577Z,99341.19
2022-12-23T02:01:31.994Z,99342.03
2022-12-23T02:04:04.709Z,99346.38
2022-12-23T02:06:55.516Z,99350.84
2022-12-23T02:09:29.548Z,99347.34
2022-12-23T02:12:21.593Z,99347.31
2022-12-23T02:15:48.054Z,99362.22
2022-12-23T02:18:17.836Z,99375.41
2022-12-23T02:21:18.567Z,99376.31
2022-12-23T02:24:22.065Z,99392.19
2022-12-23T02:27:17.437Z,99403.63
2022-12-23T02:30:05.149Z,99420.34
2022-12-23T02:32:58.051Z,99423.78
2022-12-23T02:35:53.382Z,99448.34
2022-12-23T02:38:33.019Z,99445.72
2022-12-23T02:41:10.873Z,99435.22
2022-12-23T02:43:45.180Z,99431.69
2022-12-23T02:46:41.153Z,99434.38
2022-12-23T02:49:26.159Z,99486.97
2022-12-23T02:51:56.515Z,99493.13
2022-12-23T02:54:32.769Z,99490.56
2022-12-23T02:57:03.783Z,99504.63
2022-12-23T02:59:39.656Z,99505.50
2022-12-23T03:02:06.821Z,99513.41
2022-12-23T03:04:33.851Z,99504.66
2022-12-23T03:07:07.448Z,99501.13
2022-12-23T03:10:03.179Z,99515.16
2022-12-23T03:12:57.206Z,99553.69
2022-12-23T03:15:47.433Z,99530.03
2022-12-23T03:18:37.835Z,99533.56
2022-12-23T03:21:18.083Z,99534.44
2022-12-23T03:24:02.456Z,99541.50
2022-12-23T03:26:45.423Z,99542.41
2022-12-23T03:29:39.624Z,99531.09
2022-12-23T03:32:08.622Z,99553.91
2022-12-23T03:34:41.460Z,99545.09
2022-12-23T03:37:12.375Z,99550.38
2022-12-23T03:39:47.224Z,99551.22
2022-12-23T03:42:45.225Z,99552.16
2022-12-23T03:45:38.541Z,99566.13
2022-12-23T03:48:22.007Z,99575.78
2022-12-23T03:50:56.188Z,99563.41
2022-12-23T03:53:31.554Z,99541.47
2022-12-23T03:56:20.768Z,99538.94
2022-12-23T03:58:53.921Z,99544.22
2022-12-23T04:01:55.842Z,99546.91
2022-12-23T04:04:37.855Z,99541.59
2022-12-23T04:07:24.217Z,99534.63
2022-12-23T04:09:56.391Z,99550.47
2022-12-23T04:12:25.584Z,99541.75
2022-12-23T04:14:52.676Z,99522.41
2022-12-23T04:17:20.317Z,99530.34
2022-12-23T04:19:54.269Z,99535.66
2022-12-23T04:22:21.471Z,99555.00
2022-12-23T04:24:48.451Z,99526.94
2022-12-23T04:27:16.941Z,99546.28
2022-12-23T04:29:47.424Z,99570.00
2022-12-23T04:32:14.480Z,99583.19
2022-12-23T04:34:41.451Z,99597.22
2022-12-23T04:37:08.463Z,99589.31
2022-12-23T04:39:44.434Z,99574.38
2022-12-23T04:42:11.355Z,99585.81
2022-12-23T04:44:38.372Z,99594.63
2022-12-23T04:47:05.487Z,99599.03
2022-12-23T04:49:35.445Z,99587.59
2022-12-23T04:52:50.300Z,99609.56
2022-12-23T04:55:17.650Z,99599.88
2022-12-23T04:57:44.706Z,99586.69
2022-12-23T05:00:12.365Z,99607.78
2022-12-23T05:02:39.525Z,99586.69
2022-12-23T05:05:06.893Z,99582.28
2022-12-23T05:07:33.914Z,99605.13
2022-12-23T05:10:02.357Z,99614.75
2022-12-23T05:12:45.112Z,99597.13
2022-12-23T05:15:12.533Z,99579.53
2022-12-23T05:17:39.604Z,99581.31
2022-12-23T05:20:07.879Z,99591.84
2022-12-23T05:22:35.088Z,99582.16
2022-12-23T05:25:02.323Z,99593.66
2022-12-23T05:27:29.312Z,99595.44
2022-12-23T05:29:56.277Z,99605.06
2022-12-23T05:32:23.292Z,99599.78
2022-12-23T05:34:53.545Z,99598.00
2022-12-23T05:37:20.548Z,99589.22
2022-12-23T05:39:47.843Z,99584.00
2022-12-23T05:42:19.410Z,99593.66
2022-12-23T05:44:46.615Z,99579.63
2022-12-23T05:47:13.645Z,99569.06
2022-12-23T05:49:40.590Z,99576.09
2022-12-23T05:52:07.749Z,99572.59
2022-12-23T05:54:34.897Z,99576.13
2022-12-23T05:57:01.865Z,99580.53
2022-12-23T05:59:31.266Z,99563.81
2022-12-23T06:01:59.026Z,99581.41
2022-12-23T06:04:26.333Z,99575.25
2022-12-23T06:06:53.683Z,99567.31
2022-12-23T06:09:20.838Z,99580.53
2022-12-23T06:11:47.926Z,99582.25
2022-12-23T06:14:15.091Z,99582.25
2022-12-23T06:16:42.314Z,99576.09
2022-12-23T06:19:09.602Z,99566.41
2022-12-23T06:21:36.606Z,99580.50
2022-12-23T06:24:03.837Z,99593.69
2022-12-23T06:26:30.836Z,99584.00
2022-12-23T06:28:58.021Z,99588.44
2022-12-23T06:31:25.044Z,99594.59
2022-12-23T06:33:52.032Z,99599.00
2022-12-23T06:36:19.136Z,99595.47
2022-12-23T06:38:46.136Z,99599.88
2022-12-23T06:41:13.513Z,99597.22
2022-12-23T06:43:40.481Z,99611.31
2022-12-23T06:46:07.638Z,99611.28
2022-12-23T06:48:34.859Z,99594.56
2022-12-23T06:51:01.904Z,99581.41
2022-12-23T06:53:28.864Z,99592.00
2022-12-23T06:56:03.684Z,99600.78
2022-12-23T06:58:31.007Z,99600.78
2022-12-23T07:00:58.145Z,99598.13
2022-12-23T07:03:25.502Z,99602.53
2022-12-23T07:05:52.633Z,99594.59
2022-12-23T07:08:20.462Z,99577.88
2022-12-23T07:10:47.599Z,99573.50
2022-12-23T07:13:14.773Z,99572.63
2022-12-23T07:15:41.826Z,99557.63
2022-12-23T07:18:08.937Z,99567.31
2022-12-23T07:20:36.113Z,99567.31
2022-12-23T07:23:03.178Z,99566.41
2022-12-23T07:25:30.215Z,99566.41
2022-12-23T07:27:57.418Z,99577.88
2022-12-23T07:30:24.510Z,99562.91
2022-12-23T07:32:51.730Z,99573.44
2022-12-23T07:35:19.002Z,99591.06
2022-12-23T07:37:46.343Z,99614.78
2022-12-23T07:40:13.675Z,99623.56
2022-12-23T07:42:46.039Z,99624.47
2022-12-23T07:45:13.911Z,99616.56
2022-12-23T07:47:40.871Z,99626.19
2022-12-23T07:50:08.859Z,99627.03
2022-12-23T07:52:35.882Z,99620.91
2022-12-23T07:55:02.812Z,99610.34
2022-12-23T07:57:29.919Z,99612.97
2022-12-23T07:59:57.099Z,99620.91
2022-12-23T08:02:25.504Z,99616.47
2022-12-23T08:04:52.806Z,99617.31
2022-12-23T08:07:19.826Z,99618.16
2022-12-23T08:09:49.825Z,99612.03
2022-12-23T08:12:16.764Z,99630.50
2022-12-23T08:14:43.782Z,99621.69
2022-12-23T08:17:10.778Z,99612.00
2022-12-23T08:19:37.790Z,99592.66
2022-12-23T08:22:04.782Z,99594.41
2022-12-23T08:24:31.843Z,99593.56
2022-12-23T08:26:58.808Z,99586.50
2022-12-23T08:29:28.884Z,99590.00
2022-12-23T08:31:58.349Z,99594.38
2022-12-23T08:34:25.508Z,99599.66
2022-12-23T08:36:52.455Z,99617.31
2022-12-23T08:39:19.995Z,99634.03
2022-12-23T08:41:48.708Z,99619.06
2022-12-23T08:44:16.997Z,99609.34
2022-12-23T08:46:44.200Z,99623.41
2022-12-23T08:49:11.854Z,99625.19
2022-12-23T08:51:39.207Z,99620.78
2022-12-23T08:54:10.767Z,99636.63
2022-12-23T08:56:41.614Z,99634.81
2022-12-23T08:59:19.692Z,99641.84
2022-12-23T09:01:48.447Z,99634.72
2022-12-23T09:04:15.690Z,99634.72
2022-12-23T09:06:43.401Z,99619.72
2022-12-23T09:09:13.052Z,99617.97
2022-12-23T09:11:40.224Z,99607.41
2022-12-23T09:14:08.749Z,99607.41
2022-12-23T09:16:36.424Z,99610.94
2022-12-23T09:19:04.901Z,99611.78
2022-12-23T09:21:32.264Z,99620.59
2022-12-23T09:23:59.328Z,99627.63
2022-12-23T09:26:29.884Z,99625.88
2022-12-23T09:28:57.455Z,99617.91
2022-12-23T09:31:29.304Z,99608.19
2022-12-23T09:34:01.308Z,99603.78
2022-12-23T09:36:29.446Z,99612.56
2022-12-23T09:38:58.374Z,99609.94
2022-12-23T09:42:01.596Z,99602.88
2022-12-23T09:45:17.187Z,99609.03
2022-12-23T09:47:45.303Z,99603.72
2022-12-23T09:50:34.372Z,99609.00
2022-12-23T09:53:06.474Z,99606.34
2022-12-23T09:55:57.973Z,99607.19
2022-12-23T09:58:53.958Z,99603.66
2022-12-23T10:01:32.530Z,99595.72
2022-12-23T10:04:32.396Z,99587.78
2022-12-23T10:07:17.197Z,99577.19
2022-12-23T10:09:46.497Z,99572.91
2022-12-23T10:12:40.349Z,99578.25
2022-12-23T10:15:28.317Z,99587.94
2022-12-23T10:18:02.393Z,99593.22
2022-12-23T10:20:46.096Z,99588.81
2022-12-23T10:23:25.435Z,99588.75
2022-12-23T10:25:53.443Z,99592.28
2022-12-23T10:28:23.303Z,99582.56
2022-12-23T10:31:31.127Z,99579.06
2022-12-23T10:34:58.433Z,99582.59
2022-12-23T10:37:49.326Z,99581.72
2022-12-23T10:40:25.682Z,99575.56
2022-12-23T10:43:35.137Z,99575.59
2022-12-23T10:46:51.707Z,99565.91
2022-12-23T10:49:36.401Z,99562.41
2022-12-23T10:52:13.306Z,99567.72
2022-12-23T10:54:44.441Z,99558.00
2022-12-23T10:57:16.222Z,99558.84
2022-12-23T10:59:47.262Z,99542.97
2022-12-23T11:02:14.614Z,99537.66
2022-12-23T11:04:48.607Z,99539.41
2022-12-23T11:07:46.262Z,99534.09
2022-12-23T11:10:33.132Z,99521.75
2022-12-23T11:13:01.072Z,99512.06
2022-12-23T11:15:36.142Z,99509.41
2022-12-23T11:18:12.744Z,99502.31
2022-12-23T11:20:45.223Z,99490.84
2022-12-23T11:23:31.535Z,99488.22
2022-12-23T11:26:08.799Z,99486.44
2022-12-23T11:28:48.677Z,99470.56
2022-12-23T11:31:17.385Z,99455.56
2022-12-23T11:33:59.117Z,99431.72
2022-12-23T11:36:28.887Z,99436.13
2022-12-23T11:39:06.063Z,99422.91
2022-12-23T11:41:44.264Z,99409.69
2022-12-23T11:44:38.462Z,99399.94
2022-12-23T11:47:23.427Z,99405.25
2022-12-23T11:49:54.875Z,99390.25
2022-12-23T11:52:24.496Z,99389.38
2022-12-23T11:54:55.720Z,99397.28
2022-12-23T11:57:40.861Z,99384.94
2022-12-23T12:00:24.707Z,99383.09
2022-12-23T12:02:59.335Z,99373.44
2022-12-23T12:05:50.799Z,99365.47
2022-12-23T12:08:26.445Z,99370.72
2022-12-23T12:11:02.040Z,99359.22
2022-12-23T12:13:35.836Z,99355.72
2022-12-23T12:16:39.251Z,99351.28
2022-12-23T12:19:32.190Z,99344.16
2022-12-23T12:22:09.352Z,99334.47
2022-12-23T12:24:42.335Z,99337.13
2022-12-23T12:27:12.239Z,99322.06
2022-12-23T12:29:52.886Z,99323.81
2022-12-23T12:32:36.331Z,99314.97
2022-12-23T12:35:16.838Z,99299.06
2022-12-23T12:38:01.764Z,99298.16
2022-12-23T12:40:33.104Z,99297.22
2022-12-23T12:43:23.115Z,99283.09
2022-12-23T12:46:23.159Z,99279.53
2022-12-23T12:49:15.875Z,99280.41
2022-12-23T12:51:48.353Z,99275.13
2022-12-23T12:54:24.470Z,99263.63
2022-12-23T12:56:57.708Z,99262.72
2022-12-23T12:59:32.882Z,99256.53
2022-12-23T13:02:11.367Z,99252.13
2022-12-23T13:05:17.378Z,99259.13
2022-12-23T13:08:24.432Z,99253.84
2022-12-23T13:11:10.079Z,99240.63
2022-12-23T13:13:48.734Z,99239.72
2022-12-23T13:16:45.587Z,99237.09
2022-12-23T13:19:30.425Z,99235.31
2022-12-23T13:22:16.449Z,99226.47
2022-12-23T13:24:58.098Z,99217.66
2022-12-23T13:27:49.589Z,99200.88
2022-12-23T13:30:23.832Z,99196.44
2022-12-23T13:33:09.609Z,99194.66
2022-12-23T13:36:06.142Z,99196.38
2022-12-23T13:39:04.293Z,99188.38
2022-12-23T13:41:42.994Z,99191.88
2022-12-23T13:44:13.630Z,99190.94
2022-12-23T13:47:24.298Z,99197.06
2022-12-23T13:50:07.697Z,99184.66
2022-12-23T13:53:06.670Z,99184.63
2022-12-23T13:56:14.161Z,99188.13
2022-12-23T13:58:41.610Z,99186.28
2022-12-23T14:01:08.559Z,99192.44
2022-12-23T14:03:38.570Z,99195.06
2022-12-23T14:06:25.100Z,99194.13
2022-12-23T14:08:56.074Z,99194.97
2022-12-23T14:11:29.276Z,99194.09
2022-12-23T14:14:03.280Z,99196.72
2022-12-23T14:17:05.636Z,99191.41
2022-12-23T14:20:12.657Z,99196.75
2022-12-23T14:23:00.193Z,99198.44
2022-12-23T14:25:50.774Z,99189.59
2022-12-23T14:29:18.674Z,99194.00
2022-12-23T14:31:54.596Z,99199.28
2022-12-23T14:34:22.912Z,99197.53
2022-12-23T14:37:34.802Z,99200.19
2022-12-23T14:41:08.306Z,99202.81
2022-12-23T14:43:44.467Z,99209.94
2022-12-23T14:46:43.774Z,99212.56
2022-12-23T14:49:39.535Z,99226.81
2022-12-23T14:52:44.475Z,99213.44
2022-12-23T14:55:32.784Z,99212.56
2022-12-23T14:58:18.651Z,99204.69
2022-12-23T15:00:50.941Z,99214.41
2022-12-23T15:03:20.607Z,99195.91
2022-12-23T15:05:48.427Z,99195.91
2022-12-23T15:08:27.191Z,99193.22
2022-12-23T15:10:56.212Z,99195.00
2022-12-23T15:13:27.507Z,99198.56
2022-12-23T15:16:00.876Z,99201.16
2022-12-23T15:18:29.053Z,99196.81
2022-12-23T15:21:10.495Z,99211.72
2022-12-23T15:23:37.421Z,99214.44
2022-12-23T15:26:04.465Z,99218.81
2022-12-23T15:28:39.736Z,99215.22
2022-12-23T15:31:21.556Z,99212.69
2022-12-23T15:34:06.180Z,99234.34
2022-12-23T15:36:36.329Z,99257.69
2022-12-23T15:39:18.478Z,99254.03
2022-12-23T15:41:47.271Z,99256.69
2022-12-23T15:44:22.262Z,99263.84
2022-12-23T15:46:50.639Z,99241.34
2022-12-23T15:49:20.497Z,99228.25
2022-12-23T15:52:07.945Z,99238.91
2022-12-23T15:54:44.598Z,99232.78
2022-12-23T15:57:20.817Z,99234.53
2022-12-23T15:59:48.689Z,99244.22
2022-12-23T16:05:24.922Z,99265.00
2022-12-23T16:07:51.973Z,99291.53
2022-12-23T16:10:21.932Z,99331.00
2022-12-23T16:12:52.556Z,99357.88
2022-12-23T16:15:32.149Z,99356.19
2022-12-23T16:18:25.921Z,99338.75
2022-12-23T16:21:04.817Z,99337.03
2022-12-23T16:23:35.577Z,99336.97
2022-12-23T16:26:03.871Z,99322.41
2022-12-23T16:28:43.643Z,99292.59
2022-12-23T16:31:15.672Z,99328.38
2022-12-23T16:33:45.880Z,99330.28
2022-12-23T16:36:37.271Z,99327.69
2022-12-23T16:39:07.058Z,99335.53
2022-12-23T16:41:35.172Z,99316.25
2022-12-23T16:44:03.241Z,99326.06
2022-12-23T16:46:35.907Z,99340.66
2022-12-23T16:49:06.566Z,99344.00
2022-12-23T16:51:34.251Z,99335.25
2022-12-23T16:54:02.156Z,99329.59
2022-12-23T16:56:36.440Z,99307.94
2022-12-23T16:59:04.716Z,99302.13
2022-12-23T17:01:36.588Z,99319.44
2022-12-23T17:04:05.344Z,99312.38
2022-12-23T17:06:33.211Z,99318.66
2022-12-23T17:09:00.346Z,99317.59
2022-12-23T17:11:57.516Z,99314.25
2022-12-23T17:14:25.980Z,99329.84
2022-12-23T17:16:53.464Z,99341.31
2022-12-23T17:19:28.047Z,99349.91
2022-12-23T17:22:01.704Z,99332.97
2022-12-23T17:24:28.828Z,99331.53
2022-12-23T17:26:59.231Z,99348.56
2022-12-23T17:29:26.414Z,99327.50
2022-12-23T17:31:53.691Z,99328.50
2022-12-23T17:34:24.909Z,99312.75
2022-12-23T17:36:52.889Z,99308.72
2022-12-23T17:39:22.099Z,99321.84
2022-12-23T17:41:49.531Z,99330.56
2022-12-23T17:44:18.058Z,99327.81
2022-12-23T17:46:46.394Z,99320.56
2022-12-23T17:49:13.529Z,99323.22
2022-12-23T17:51:41.733Z,99311.03
2022-12-23T17:54:23.045Z,99301.41
2022-12-23T17:56:50.916Z,99332.56
2022-12-23T17:59:21.528Z,99302.91
2022-12-23T18:01:49.023Z,99306.81
2022-12-23T18:04:16.181Z,99302.38
2022-12-23T18:06:43.283Z,99318.03
2022-12-23T18:09:10.324Z,99305.56
2022-12-23T18:11:42.547Z,99306.13
2022-12-23T18:14:19.109Z,99311.72
2022-12-23T18:16:46.641Z,99317.97
2022-12-23T18:19:18.980Z,99327.19
2022-12-23T18:21:46.466Z,99323.97
2022-12-23T18:24:13.623Z,99335.34
2022-12-23T18:26:40.816Z,99318.69
2022-12-23T18:29:08.115Z,99324.16
2022-12-23T18:31:37.631Z,99329.63
2022-12-23T18:34:04.656Z,99309.25
2022-12-23T18:36:34.104Z,99300.66
2022-12-23T18:39:01.485Z,99311.81
2022-12-23T18:41:29.160Z,99298.72
2022-12-23T18:43:56.586Z,99288.31
2022-12-23T18:46:23.781Z,99294.38
2022-12-23T18:48:51.827Z,99276.00
2022-12-23T18:51:22.714Z,99292.03
2022-12-23T18:53:50.349Z,99276.22
2022-12-23T18:56:21.407Z,99284.19
2022-12-23T18:58:48.990Z,99292.84
2022-12-23T19:01:18.590Z,99280.41
2022-12-23T19:03:47.054Z,99292.16
2022-12-23T19:06:15.720Z,99278.41
2022-12-23T19:08:45.474Z,99297.72
2022-12-23T19:11:19.909Z,99306.97
2022-12-23T19:13:47.896Z,99309.66
2022-12-23T19:16:18.645Z,99319.16
2022-12-23T19:18:47.262Z,99333.22
2022-12-23T19:21:17.819Z,99338.38
2022-12-23T19:23:46.713Z,99347.19
2022-12-23T19:26:15.353Z,99331.50
2022-12-23T19:28:43.029Z,99343.16
2022-12-23T19:31:13.472Z,99364.13
2022-12-23T19:33:42.713Z,99357.00
2022-12-23T19:36:12.862Z,99367.00
2022-12-23T19:38:40.796Z,99361.19
2022-12-23T19:41:09.093Z,99337.66
2022-12-23T19:43:38.554Z,99333.34
2022-12-23T19:46:10.457Z,99339.66
2022-12-23T19:48:38.238Z,99346.50
2022-12-23T19:51:13.926Z,99329.81
2022-12-23T19:53:42.504Z,99341.19
2022-12-23T19:56:15.774Z,99321.03
2022-12-23T19:58:44.917Z,99300.88
2022-12-23T20:01:17.197Z,99309.72
2022-12-23T20:03:46.521Z,99322.94
2022-12-23T20:06:24.036Z,99340.50
2022-12-23T20:08:55.037Z,99310.69
2022-12-23T20:11:27.143Z,99341.50
2022-12-23T20:13:55.596Z,99343.19
2022-12-23T20:16:24.010Z,99344.13
2022-12-23T20:18:51.380Z,99360.25
2022-12-23T20:21:18.902Z,99370.81
2022-12-23T20:23:46.439Z,99360.91
2022-12-23T20:26:15.773Z,99369.69
2022-12-23T20:28:42.809Z,99359.16
2022-12-23T20:31:19.077Z,99358.47
2022-12-23T20:33:47.978Z,99382.00
2022-12-23T20:36:17.887Z,99362.03
2022-12-23T20:38:46.640Z,99376.75
2022-12-23T20:41:18.125Z,99352.13
2022-12-23T20:43:56.871Z,99340.72
2022-12-23T20:46:32.349Z,99350.69
2022-12-23T20:48:59.288Z,99362.81
2022-12-23T20:51:26.575Z,99353.31
2022-12-23T20:53:59.703Z,99378.72
2022-12-23T20:56:29.409Z,99364.75
2022-12-23T20:59:00.342Z,99390.19
2022-12-23T21:01:38.251Z,99407.63
2022-12-23T21:04:18.117Z,99382.41
2022-12-23T21:06:45.430Z,99390.34
2022-12-23T21:09:14.970Z,99390.44
2022-12-23T21:11:45.360Z,99383.44
2022-12-23T21:14:14.588Z,99391.34
2022-12-23T21:16:42.597Z,99375.53
2022-12-23T21:19:19.458Z,99379.13
2022-12-23T21:21:48.378Z,99378.28
2022-12-23T21:24:16.563Z,99387.84
2022-12-23T21:26:43.915Z,99381.31
2022-12-23T21:29:12.371Z,99372.72
2022-12-23T21:31:41.241Z,99359.44
2022-12-23T21:34:09.284Z,99350.84
2022-12-23T21:36:40.876Z,99357.72
2022-12-23T21:39:13.382Z,99361.38
2022-12-23T21:41:43.939Z,99336.78
2022-12-23T21:44:16.138Z,99356.88
2022-12-23T21:46:43.397Z,99366.44
2022-12-23T21:49:11.451Z,99357.91
2022-12-23T21:51:40.847Z,99379.94
2022-12-23T21:54:10.766Z,99368.63
2022-12-23T21:56:38.599Z,99379.28
2022-12-23T21:59:16.644Z,99376.75
2022-12-23T22:01:44.231Z,99400.41
2022-12-23T22:04:12.229Z,99418.03
2022-12-23T22:06:45.719Z,99407.31
2022-12-23T22:09:17.733Z,99409.03
2022-12-23T22:11:46.375Z,99387.16
2022-12-23T22:14:17.032Z,99398.41
2022-12-23T22:16:44.243Z,99386.97
2022-12-23T22:19:11.999Z,99387.84
2022-12-23T22:21:39.898Z,99407.34
2022-12-23T22:24:08.107Z,99410.94
2022-12-23T22:26:35.940Z,99426.88
2022-12-23T22:29:05.860Z,99445.41
2022-12-23T22:31:48.795Z,99460.47
2022-12-23T22:34:22.561Z,99475.47
2022-12-23T22:36:50.202Z,99472.00
2022-12-23T22:39:21.615Z,99478.19
2022-12-23T22:41:51.136Z,99485.28
2022-12-23T22:44:19.101Z,99464.25
2022-12-23T22:46:46.372Z,99480.09
2022-12-23T22:49:14.837Z,99495.84
2022-12-23T22:51:43.185Z,99491.47
2022-12-23T22:54:10.358Z,99484.56
2022-12-23T22:56:37.781Z,99515.25
2022-12-23T22:59:05.032Z,99494.16
2022-12-23T23:01:35.867Z,99501.28
2022-12-23T23:04:04.370Z,99488.09
2022-12-23T23:06:38.121Z,99490.69
2022-12-23T23:09:15.555Z,99496.88
2022-12-23T23:11:44.290Z,99482.84
2022-12-23T23:14:12.371Z,99496.88
2022-12-23T23:16:40.007Z,99476.63
2022-12-23T23:19:09.200Z,99490.78
2022-12-23T23:21:37.817Z,99498.56
2022-12-23T23:24:05.847Z,99480.03
2022-12-23T23:26:32.957Z,99483.66
2022-12-23T23:28:59.985Z,99475.63
2022-12-23T23:31:43.517Z,99484.25
2022-12-23T23:34:12.320Z,99472.09
2022-12-23T23:36:40.098Z,99491.47
2022-12-23T23:39:07.269Z,99496.00
2022-12-23T23:41:35.927Z,99518.06
2022-12-23T23:44:02.959Z,99531.13
2022-12-23T23:46:31.872Z,99522.28
2022-12-23T23:48:59.072Z,99526.56
2022-12-23T23:51:26.479Z,99500.00
2022-12-23T23:53:53.428Z,99506.41
2022-12-23T23:56:25.372Z,99510.03
2022-12-23T23:58:52.948Z,99522.44
